ADDS METAR Data INFO
IDs: Format: Raw Decoded Include TAF

Data at: 1810 UTC 14 Aug 2018

PAOH 141756Z AUTO 24006KT 10SM OVC050 16/10 A2991 RMK AO2 SLP130 T01610100 10167 20133 51019
PAOH 141656Z AUTO VRB06KT 10SM BKN048 16/11 A2990 RMK AO2 SLP125 T01560106
PAOH 141608Z AUTO VRB06KT 10SM OVC031 16/12 A2988 RMK AO2
PAOH 141556Z AUTO VRB04KT 10SM BKN029 BKN055 16/12 A2988 RMK AO2 SLP119 T01560122
PAOH 141456Z AUTO VRB03KT 10SM BKN027 OVC036 15/12 A2986 RMK AO2 SLP111 T01500122 53013
PAOH 141335Z AUTO 00000KT 10SM BKN027 BKN034 OVC060 14/12 A2983 RMK AO2
PAOH 141328Z AUTO 00000KT 10SM SCT027 BKN036 OVC060 14/12 A2983 RMK AO2
PAOH 141256Z AUTO 00000KT 10SM OVC027 14/12 A2983 RMK AO2 SLP101 T01440122
PAOH 141156Z AUTO 00000KT 10SM OVC027 13/12 A2982 RMK AO2 SLP099 70001 T01330122 10144 20133 52004
PAOH 141116Z AUTO 00000KT 10SM OVC029 13/12 A2981 RMK AO2
PAOH 141056Z AUTO 00000KT 10SM BKN031 OVC040 13/12 A2982 RMK AO2 SLP097 T01330122
PAOH 140956Z AUTO 08003KT 10SM BKN035 OVC048 14/12 A2981 RMK AO2 SLP096 T01390122
PAOH 140856Z AUTO 08003KT 10SM OVC045 14/12 A2981 RMK AO2 SLP095 T01440122 56009
PAOH 140656Z AUTO 07008KT 10SM BKN035 BKN046 OVC055 14/12 A2982 RMK AO2 SLP098 T01390122
PAOH 140556Z AUTO 07008KT 10SM SCT035 BKN043 OVC055 14/12 A2984 RMK AO2 SLP104 60001 T01440122 10156 20139 56018
PAOH 140456Z AUTO 08008KT 10SM FEW040 OVC060 14/12 A2985 RMK AO2 RAE43 SLP109 P0000 T01390122
PAOH 140356Z AUTO 07007KT 10SM -RA BKN055 OVC075 14/13 A2987 RMK AO2 RAB02E15B34 SLP116 P0001 T01390128
PAOH 140256Z AUTO 09009KT 10SM FEW037 SCT049 OVC055 15/12 A2989 RMK AO2 RAB02E26 SLP122 P0000 60000 T01500122 57027
PAOH 140156Z AUTO 08008KT 10SM FEW035 OVC055 16/13 A2992 RMK AO2 SLP132 T01560128
PAOH 140056Z AUTO 08008KT 10SM BKN034 OVC055 15/13 A2994 RMK AO2 RAE54 SLP140 P0000 T01500128
PAOH 132356Z AUTO 08006KT 10SM -RA FEW023 BKN031 OVC040 15/13 A2997 RMK AO2 SLP150 P0000 60000 T01500133 10183 20150 56010
PAOH 132256Z AUTO 00000KT 10SM -RA FEW027 BKN035 OVC060 16/13 A2998 RMK AO2 SLP154 P0000 T01610133
PAOH 132156Z AUTO VRB04KT 10SM -RA FEW039 OVC060 17/12 A3000 RMK AO2 RAB27 SLP160 P0000 T01720117
PAOH 132056Z AUTO 00000KT 10SM SCT039 OVC055 18/11 A3001 RMK AO2 SLP163 T01830111 55017
PAOH 131956Z AUTO 08008KT 10SM BKN039 OVC048 17/12 A3000 RMK AO2 SLP161 T01720117
PAOH 131856Z AUTO 07006KT 10SM BKN037 BKN044 OVC100 17/11 A3004 RMK AO2 SLP173 T01670111
PAOH 131756Z AUTO VRB05KT 10SM OVC034 17/11 A3006 RMK AO2 SLP180 T01670106 10167 20133 56017
PAOH 131656Z AUTO 22005KT 10SM BKN032 OVC110 16/11 A3007 RMK AO2 SLP185 T01610111
PAOH 131556Z AUTO 00000KT 10SM OVC100 16/11 A3009 RMK AO2 SLP191 T01560111
PAOH 131456Z AUTO 24007KT 210V280 10SM BKN120 16/11 A3011 RMK AO2 SLP197 T01560106 56016
PAOH 131356Z AUTO 24006KT 10SM BKN034 15/12 A3012 RMK AO2 SLP200 T01500117
PAOH 131256Z AUTO 26009KT 10SM OVC034 16/12 A3015 RMK AO2 SLP209 T01560117
PAOH 131156Z AUTO 00000KT 10SM SCT034 13/12 A3016 RMK AO2 SLP213 70002 T01330122 10156 20128 58012
PAOH 131056Z AUTO 31003KT 10SM OVC032 15/12 A3019 RMK AO2 SLP223 T01500122
PAOH 130956Z AUTO 00000KT 10SM OVC032 13/13 A3018 RMK AO2 SLP221 T01330128
PAOH 130756Z AUTO 00000KT 10SM BKN031 OVC120 13/13 A3021 RMK AO2 SLP231 T01330128 401560122
PAOH 130717Z AUTO 00000KT 10SM FEW003 OVC028 13/13 A3021 RMK AO2
PAOH 130656Z AUTO 00000KT 10SM OVC030 13/13 A3022 RMK AO2 SLP234 T01330128